NDF38 LRTR-LROP
Flight info
| Callsign | NDF38 |
|---|---|
| Flight time | 0h 45m |
| Altitude | 33000 |
| Route | DITAX3E DITAX DCT LAMIT DCT TOSVI TOSVI2U |
| Aircraft | A320/M-SDE3FGHIRWY/LB1 |
Departure
| Time | 2026-05-05 14:12 |
|---|---|
| Airport | Timișoara Traian Vuia International Airport (LRTR) |
Arrival
| Time | 2026-05-05 14:58 |
|---|---|
| Airport | Bucharest Henri Coandă International Airport (LROP) |
| Time | Latitude | Longitude | Altitude | Speed | Heading |
|---|---|---|---|---|---|
| 2026-05-05 13:32 | 45.81092 | 21.32016 | 345 ft | 0 kts | 199° |
| 2026-05-05 14:00 | 45.81108 | 21.32025 | 353 ft | 3 kts | 210° |
| 2026-05-05 14:01 | 45.81123 | 21.32041 | 350 ft | 3 kts | 234° |
| 2026-05-05 14:01 | 45.81132 | 21.32065 | 348 ft | 3 kts | 266° |
| 2026-05-05 14:01 | 45.81130 | 21.32088 | 349 ft | 0 kts | 289° |
| 2026-05-05 14:05 | 45.81131 | 21.32084 | 348 ft | 1 kts | 289° |
| 2026-05-05 14:05 | 45.81141 | 21.32062 | 350 ft | 4 kts | 306° |
| 2026-05-05 14:06 | 45.81169 | 21.32052 | 347 ft | 5 kts | 9° |
| 2026-05-05 14:06 | 45.81212 | 21.32070 | 344 ft | 8 kts | 19° |
| 2026-05-05 14:06 | 45.81269 | 21.32100 | 342 ft | 10 kts | 20° |
| 2026-05-05 14:06 | 45.81339 | 21.32136 | 342 ft | 12 kts | 20° |
| 2026-05-05 14:07 | 45.81373 | 21.32225 | 351 ft | 11 kts | 101° |
| 2026-05-05 14:07 | 45.81347 | 21.32331 | 346 ft | 11 kts | 110° |
| 2026-05-05 14:07 | 45.81317 | 21.32448 | 348 ft | 14 kts | 110° |
| 2026-05-05 14:07 | 45.81282 | 21.32592 | 352 ft | 17 kts | 109° |
| 2026-05-05 14:08 | 45.81240 | 21.32761 | 351 ft | 20 kts | 109° |
| 2026-05-05 14:08 | 45.81189 | 21.32966 | 343 ft | 23 kts | 110° |
| 2026-05-05 14:08 | 45.81132 | 21.33192 | 343 ft | 25 kts | 110° |
| 2026-05-05 14:08 | 45.81070 | 21.33436 | 343 ft | 27 kts | 110° |
| 2026-05-05 14:09 | 45.81003 | 21.33697 | 348 ft | 29 kts | 109° |
| 2026-05-05 14:09 | 45.80935 | 21.33969 | 348 ft | 31 kts | 110° |
| 2026-05-05 14:09 | 45.80860 | 21.34267 | 338 ft | 33 kts | 109° |
| 2026-05-05 14:09 | 45.80779 | 21.34583 | 336 ft | 34 kts | 109° |
| 2026-05-05 14:10 | 45.80699 | 21.34904 | 344 ft | 34 kts | 109° |
| 2026-05-05 14:10 | 45.80618 | 21.35230 | 351 ft | 35 kts | 110° |
| 2026-05-05 14:10 | 45.80536 | 21.35558 | 352 ft | 26 kts | 109° |
| 2026-05-05 14:10 | 45.80509 | 21.35769 | 350 ft | 21 kts | 79° |
| 2026-05-05 14:11 | 45.80464 | 21.35836 | 348 ft | 8 kts | 258° |
| 2026-05-05 14:11 | 45.80489 | 21.35748 | 352 ft | 13 kts | 291° |
| 2026-05-05 14:11 | 45.80598 | 21.35311 | 345 ft | 82 kts | 290° |
| 2026-05-05 14:11 | 45.80861 | 21.34266 | 338 ft | 138 kts | 289° |
| 2026-05-05 14:12 | 45.81236 | 21.32800 | 392 ft | 176 kts | 285° |
| 2026-05-05 14:12 | 45.81693 | 21.31071 | 804 ft | 191 kts | 289° |
| 2026-05-05 14:12 | 45.82140 | 21.29303 | 1619 ft | 187 kts | 287° |
| 2026-05-05 14:12 | 45.82573 | 21.27554 | 2303 ft | 190 kts | 287° |
| 2026-05-05 14:13 | 45.83038 | 21.25659 | 2655 ft | 214 kts | 287° |
| 2026-05-05 14:13 | 45.83548 | 21.23579 | 3324 ft | 224 kts | 287° |
| 2026-05-05 14:13 | 45.84072 | 21.21462 | 4166 ft | 227 kts | 287° |
| 2026-05-05 14:13 | 45.84604 | 21.19320 | 4999 ft | 229 kts | 287° |
| 2026-05-05 14:14 | 45.85141 | 21.17158 | 5872 ft | 231 kts | 287° |
| 2026-05-05 14:14 | 45.85682 | 21.14982 | 6709 ft | 232 kts | 286° |
| 2026-05-05 14:14 | 45.85935 | 21.12712 | 7250 ft | 243 kts | 259° |
| 2026-05-05 14:14 | 45.85202 | 21.10484 | 7628 ft | 260 kts | 223° |
| 2026-05-05 14:15 | 45.83594 | 21.09264 | 8243 ft | 270 kts | 188° |
| 2026-05-05 14:15 | 45.81736 | 21.09609 | 9030 ft | 277 kts | 156° |
| 2026-05-05 14:15 | 45.80090 | 21.11092 | 9887 ft | 282 kts | 142° |
| 2026-05-05 14:15 | 45.78767 | 21.13243 | 10400 ft | 301 kts | 121° |
| 2026-05-05 14:16 | 45.77940 | 21.16135 | 10624 ft | 327 kts | 111° |
| 2026-05-05 14:16 | 45.77180 | 21.19316 | 10858 ft | 347 kts | 110° |
| 2026-05-05 14:16 | 45.76412 | 21.22648 | 11426 ft | 355 kts | 110° |
| 2026-05-05 14:16 | 45.75639 | 21.26026 | 12107 ft | 359 kts | 110° |
| 2026-05-05 14:17 | 45.74855 | 21.29435 | 12813 ft | 362 kts | 109° |
| 2026-05-05 14:17 | 45.74056 | 21.32871 | 13525 ft | 365 kts | 109° |
| 2026-05-05 14:17 | 45.73243 | 21.36333 | 14182 ft | 369 kts | 110° |
| 2026-05-05 14:17 | 45.72428 | 21.39780 | 14743 ft | 373 kts | 110° |
| 2026-05-05 14:18 | 45.71593 | 21.43308 | 15315 ft | 376 kts | 109° |
| 2026-05-05 14:18 | 45.70747 | 21.46877 | 15879 ft | 380 kts | 110° |
| 2026-05-05 14:18 | 45.69891 | 21.50472 | 16435 ft | 384 kts | 109° |
| 2026-05-05 14:18 | 45.69024 | 21.54098 | 17010 ft | 387 kts | 109° |
| 2026-05-05 14:19 | 45.68146 | 21.57759 | 17589 ft | 391 kts | 109° |
| 2026-05-05 14:19 | 45.67258 | 21.61455 | 18163 ft | 395 kts | 109° |
| 2026-05-05 14:19 | 45.66359 | 21.65190 | 18698 ft | 398 kts | 109° |
| 2026-05-05 14:19 | 45.65468 | 21.68896 | 19210 ft | 401 kts | 109° |
| 2026-05-05 14:20 | 45.64547 | 21.72735 | 19739 ft | 405 kts | 109° |
| 2026-05-05 14:20 | 45.63640 | 21.76510 | 20227 ft | 409 kts | 109° |
| 2026-05-05 14:20 | 45.62712 | 21.80372 | 20721 ft | 413 kts | 109° |
| 2026-05-05 14:20 | 45.61772 | 21.84268 | 21208 ft | 416 kts | 109° |
| 2026-05-05 14:21 | 45.60823 | 21.88191 | 21646 ft | 420 kts | 109° |
| 2026-05-05 14:21 | 45.59862 | 21.92152 | 22085 ft | 424 kts | 109° |
| 2026-05-05 14:21 | 45.58893 | 21.96140 | 22562 ft | 426 kts | 109° |
| 2026-05-05 14:21 | 45.57914 | 22.00160 | 23014 ft | 430 kts | 108° |
| 2026-05-05 14:22 | 45.56928 | 22.04205 | 23461 ft | 433 kts | 109° |
| 2026-05-05 14:22 | 45.55933 | 22.08277 | 23851 ft | 436 kts | 108° |
| 2026-05-05 14:22 | 45.54930 | 22.12369 | 24241 ft | 438 kts | 108° |
| 2026-05-05 14:22 | 45.53919 | 22.16482 | 24600 ft | 441 kts | 108° |
| 2026-05-05 14:23 | 45.52913 | 22.20570 | 24971 ft | 443 kts | 108° |
| 2026-05-05 14:23 | 45.51888 | 22.24725 | 25338 ft | 445 kts | 108° |
| 2026-05-05 14:23 | 45.50858 | 22.28901 | 25703 ft | 448 kts | 108° |
| 2026-05-05 14:23 | 45.49822 | 22.33101 | 26089 ft | 451 kts | 108° |
| 2026-05-05 14:24 | 45.48778 | 22.37333 | 26464 ft | 453 kts | 108° |
| 2026-05-05 14:24 | 45.47729 | 22.41581 | 26826 ft | 456 kts | 108° |
| 2026-05-05 14:24 | 45.46667 | 22.45853 | 27185 ft | 459 kts | 108° |
| 2026-05-05 14:24 | 45.45593 | 22.50145 | 27545 ft | 462 kts | 108° |
| 2026-05-05 14:25 | 45.44538 | 22.54478 | 27909 ft | 463 kts | 106° |
| 2026-05-05 14:25 | 45.43567 | 22.58799 | 28248 ft | 466 kts | 107° |
| 2026-05-05 14:25 | 45.42518 | 22.63178 | 28605 ft | 469 kts | 108° |
| 2026-05-05 14:25 | 45.41416 | 22.67549 | 29072 ft | 469 kts | 108° |
| 2026-05-05 14:26 | 45.40288 | 22.71896 | 29611 ft | 468 kts | 108° |
| 2026-05-05 14:26 | 45.39156 | 22.76226 | 30132 ft | 467 kts | 108° |
| 2026-05-05 14:26 | 45.38035 | 22.80551 | 30585 ft | 466 kts | 108° |
| 2026-05-05 14:26 | 45.36927 | 22.84880 | 31008 ft | 465 kts | 108° |
| 2026-05-05 14:27 | 45.35834 | 22.89199 | 31442 ft | 464 kts | 108° |
| 2026-05-05 14:27 | 45.34747 | 22.93511 | 31862 ft | 463 kts | 108° |
| 2026-05-05 14:27 | 45.33657 | 22.97820 | 32347 ft | 462 kts | 108° |
| 2026-05-05 14:27 | 45.32584 | 23.02053 | 32774 ft | 461 kts | 108° |
| 2026-05-05 14:28 | 45.31493 | 23.06337 | 32963 ft | 462 kts | 107° |
| 2026-05-05 14:28 | 45.30392 | 23.10639 | 33006 ft | 465 kts | 108° |
| 2026-05-05 14:28 | 45.28170 | 23.19273 | 32983 ft | 466 kts | 108° |
| 2026-05-05 14:29 | 45.25947 | 23.27903 | 32999 ft | 466 kts | 108° |
| 2026-05-05 14:29 | 45.23718 | 23.36529 | 32999 ft | 465 kts | 108° |
| 2026-05-05 14:30 | 45.21482 | 23.45143 | 33004 ft | 466 kts | 108° |
| 2026-05-05 14:30 | 45.19250 | 23.53699 | 33006 ft | 466 kts | 108° |
| 2026-05-05 14:31 | 45.16994 | 23.62313 | 33003 ft | 466 kts | 108° |
| 2026-05-05 14:31 | 45.14734 | 23.70927 | 33020 ft | 466 kts | 108° |
| 2026-05-05 14:32 | 45.12474 | 23.79524 | 33004 ft | 466 kts | 108° |
| 2026-05-05 14:32 | 45.10209 | 23.88114 | 33000 ft | 466 kts | 108° |
| 2026-05-05 14:33 | 45.07945 | 23.96633 | 32985 ft | 465 kts | 108° |
| 2026-05-05 14:33 | 45.05664 | 24.05199 | 33004 ft | 465 kts | 108° |
| 2026-05-05 14:34 | 45.03385 | 24.13764 | 33009 ft | 465 kts | 108° |
| 2026-05-05 14:34 | 45.01097 | 24.22308 | 32971 ft | 465 kts | 108° |
| 2026-05-05 14:35 | 44.99949 | 24.26575 | 32703 ft | 465 kts | 108° |
| 2026-05-05 14:35 | 44.98812 | 24.30785 | 32437 ft | 465 kts | 108° |
| 2026-05-05 14:35 | 44.97657 | 24.35047 | 32174 ft | 465 kts | 108° |
| 2026-05-05 14:35 | 44.96500 | 24.39317 | 31937 ft | 466 kts | 108° |
| 2026-05-05 14:36 | 44.95339 | 24.43604 | 31033 ft | 470 kts | 107° |
| 2026-05-05 14:36 | 44.94166 | 24.47938 | 30187 ft | 473 kts | 107° |
| 2026-05-05 14:36 | 44.93009 | 24.52191 | 29757 ft | 459 kts | 107° |
| 2026-05-05 14:36 | 44.91872 | 24.56354 | 29199 ft | 452 kts | 108° |
| 2026-05-05 14:37 | 44.90744 | 24.60475 | 28735 ft | 445 kts | 108° |
| 2026-05-05 14:37 | 44.89642 | 24.64494 | 28377 ft | 435 kts | 108° |
| 2026-05-05 14:37 | 44.88577 | 24.68392 | 27884 ft | 430 kts | 108° |
| 2026-05-05 14:37 | 44.87508 | 24.72305 | 27373 ft | 425 kts | 108° |
| 2026-05-05 14:38 | 44.86450 | 24.76169 | 26875 ft | 420 kts | 108° |
| 2026-05-05 14:38 | 44.85398 | 24.79999 | 26364 ft | 416 kts | 108° |
| 2026-05-05 14:38 | 44.84360 | 24.83768 | 26050 ft | 408 kts | 108° |
| 2026-05-05 14:38 | 44.83348 | 24.87431 | 25936 ft | 395 kts | 108° |
| 2026-05-05 14:39 | 44.82362 | 24.90991 | 25807 ft | 384 kts | 108° |
| 2026-05-05 14:39 | 44.81404 | 24.94448 | 25658 ft | 374 kts | 108° |
| 2026-05-05 14:39 | 44.80466 | 24.97835 | 25354 ft | 369 kts | 108° |
| 2026-05-05 14:39 | 44.79540 | 25.01186 | 24998 ft | 366 kts | 108° |
| 2026-05-05 14:40 | 44.78622 | 25.04508 | 24617 ft | 363 kts | 108° |
| 2026-05-05 14:40 | 44.77720 | 25.07759 | 24279 ft | 360 kts | 108° |
| 2026-05-05 14:40 | 44.76809 | 25.11032 | 23912 ft | 357 kts | 108° |
| 2026-05-05 14:40 | 44.75906 | 25.14273 | 23542 ft | 355 kts | 108° |
| 2026-05-05 14:41 | 44.75168 | 25.17560 | 23106 ft | 350 kts | 100° |
| 2026-05-05 14:41 | 44.74676 | 25.20889 | 22719 ft | 345 kts | 94° |
| 2026-05-05 14:41 | 44.74490 | 25.24233 | 22451 ft | 343 kts | 91° |
| 2026-05-05 14:41 | 44.74329 | 25.27568 | 22068 ft | 341 kts | 91° |
| 2026-05-05 14:42 | 44.74166 | 25.30883 | 21665 ft | 338 kts | 91° |
| 2026-05-05 14:42 | 44.74005 | 25.34169 | 21268 ft | 336 kts | 91° |
| 2026-05-05 14:42 | 44.73846 | 25.37432 | 20878 ft | 333 kts | 90° |
| 2026-05-05 14:42 | 44.73694 | 25.40624 | 20495 ft | 331 kts | 90° |
| 2026-05-05 14:43 | 44.73541 | 25.43844 | 20129 ft | 329 kts | 90° |
| 2026-05-05 14:43 | 44.73387 | 25.47038 | 19760 ft | 326 kts | 90° |
| 2026-05-05 14:43 | 44.73230 | 25.50201 | 19244 ft | 322 kts | 90° |
| 2026-05-05 14:43 | 44.73075 | 25.53336 | 18718 ft | 321 kts | 90° |
| 2026-05-05 14:44 | 44.72919 | 25.56448 | 18243 ft | 318 kts | 90° |
| 2026-05-05 14:44 | 44.72763 | 25.59531 | 17653 ft | 314 kts | 90° |
| 2026-05-05 14:44 | 44.72607 | 25.62594 | 17091 ft | 313 kts | 90° |
| 2026-05-05 14:44 | 44.72452 | 25.65636 | 16617 ft | 310 kts | 90° |
| 2026-05-05 14:45 | 44.72300 | 25.68584 | 16095 ft | 308 kts | 90° |
| 2026-05-05 14:45 | 44.72147 | 25.71571 | 15522 ft | 305 kts | 90° |
| 2026-05-05 14:45 | 44.71995 | 25.74533 | 14968 ft | 303 kts | 90° |
| 2026-05-05 14:45 | 44.71844 | 25.77472 | 14390 ft | 300 kts | 90° |
| 2026-05-05 14:46 | 44.71693 | 25.80387 | 13790 ft | 298 kts | 90° |
| 2026-05-05 14:46 | 44.71543 | 25.83284 | 13168 ft | 298 kts | 90° |
| 2026-05-05 14:46 | 44.71393 | 25.86168 | 12888 ft | 294 kts | 89° |
| 2026-05-05 14:46 | 44.71243 | 25.88999 | 12695 ft | 286 kts | 89° |
| 2026-05-05 14:47 | 44.71093 | 25.91738 | 12564 ft | 277 kts | 89° |
| 2026-05-05 14:47 | 44.70948 | 25.94402 | 12406 ft | 270 kts | 89° |
| 2026-05-05 14:47 | 44.70812 | 25.96962 | 12159 ft | 268 kts | 89° |
| 2026-05-05 14:47 | 44.70673 | 25.99588 | 11843 ft | 267 kts | 89° |
| 2026-05-05 14:48 | 44.70534 | 26.02184 | 11538 ft | 266 kts | 89° |
| 2026-05-05 14:48 | 44.70396 | 26.04775 | 11243 ft | 266 kts | 90° |
| 2026-05-05 14:48 | 44.70259 | 26.07362 | 10946 ft | 265 kts | 90° |
| 2026-05-05 14:48 | 44.70122 | 26.09942 | 10632 ft | 265 kts | 90° |
| 2026-05-05 14:49 | 44.69981 | 26.12522 | 10360 ft | 265 kts | 90° |
| 2026-05-05 14:49 | 44.69838 | 26.15097 | 10078 ft | 264 kts | 90° |
| 2026-05-05 14:49 | 44.69694 | 26.17667 | 9791 ft | 264 kts | 90° |
| 2026-05-05 14:49 | 44.69553 | 26.20233 | 9488 ft | 262 kts | 90° |
| 2026-05-05 14:50 | 44.69414 | 26.22738 | 9005 ft | 260 kts | 90° |
| 2026-05-05 14:50 | 44.69274 | 26.25255 | 8508 ft | 257 kts | 90° |
| 2026-05-05 14:50 | 44.69134 | 26.27745 | 8009 ft | 255 kts | 90° |
| 2026-05-05 14:50 | 44.68991 | 26.30220 | 7536 ft | 253 kts | 90° |
| 2026-05-05 14:51 | 44.68849 | 26.32667 | 7065 ft | 250 kts | 90° |
| 2026-05-05 14:51 | 44.68709 | 26.35095 | 6590 ft | 248 kts | 90° |
| 2026-05-05 14:51 | 44.68569 | 26.37507 | 6085 ft | 247 kts | 91° |
| 2026-05-05 14:51 | 44.68379 | 26.39897 | 5561 ft | 248 kts | 100° |
| 2026-05-05 14:52 | 44.67574 | 26.42034 | 5053 ft | 253 kts | 132° |
| 2026-05-05 14:52 | 44.66087 | 26.43326 | 4577 ft | 256 kts | 165° |
| 2026-05-05 14:52 | 44.64330 | 26.43411 | 4313 ft | 254 kts | 195° |
| 2026-05-05 14:52 | 44.62821 | 26.42294 | 4071 ft | 248 kts | 225° |
| 2026-05-05 14:53 | 44.61709 | 26.40418 | 3502 ft | 257 kts | 235° |
| 2026-05-05 14:53 | 44.60691 | 26.38322 | 3095 ft | 261 kts | 237° |
| 2026-05-05 14:53 | 44.59707 | 26.36209 | 2895 ft | 255 kts | 237° |
| 2026-05-05 14:53 | 44.58763 | 26.34147 | 2763 ft | 246 kts | 240° |
| 2026-05-05 14:54 | 44.58268 | 26.31967 | 2649 ft | 228 kts | 263° |
| 2026-05-05 14:54 | 44.58113 | 26.29810 | 2497 ft | 218 kts | 264° |
| 2026-05-05 14:54 | 44.57967 | 26.27780 | 2277 ft | 202 kts | 263° |
| 2026-05-05 14:54 | 44.57831 | 26.25919 | 2075 ft | 182 kts | 263° |
| 2026-05-05 14:55 | 44.57707 | 26.24243 | 1870 ft | 165 kts | 263° |
| 2026-05-05 14:55 | 44.57594 | 26.22730 | 1690 ft | 149 kts | 263° |
| 2026-05-05 14:55 | 44.57490 | 26.21330 | 1508 ft | 144 kts | 263° |
| 2026-05-05 14:55 | 44.57387 | 26.19945 | 1347 ft | 142 kts | 263° |
| 2026-05-05 14:56 | 44.57284 | 26.18572 | 1176 ft | 141 kts | 262° |
| 2026-05-05 14:56 | 44.57183 | 26.17216 | 1006 ft | 139 kts | 262° |
| 2026-05-05 14:56 | 44.57083 | 26.15875 | 841 ft | 138 kts | 262° |
| 2026-05-05 14:56 | 44.56983 | 26.14535 | 673 ft | 138 kts | 262° |
| 2026-05-05 14:57 | 44.56883 | 26.13200 | 504 ft | 137 kts | 263° |
| 2026-05-05 14:57 | 44.56784 | 26.11871 | 358 ft | 137 kts | 263° |
| 2026-05-05 14:57 | 44.56684 | 26.10618 | 324 ft | 115 kts | 263° |
| 2026-05-05 14:57 | 44.56616 | 26.09733 | 321 ft | 71 kts | 264° |
| 2026-05-05 14:58 | 44.56568 | 26.09085 | 323 ft | 54 kts | 264° |
| 2026-05-05 14:58 | 44.56558 | 26.08706 | 322 ft | 22 kts | 295° |
| 2026-05-05 14:58 | 44.56686 | 26.08584 | 322 ft | 24 kts | 351° |
| 2026-05-05 14:58 | 44.56742 | 26.08576 | 322 ft | 0 kts | 355° |
| 2026-05-05 14:59 | 44.56745 | 26.08576 | 322 ft | 1 kts | 355° |
| 2026-05-05 14:59 | 44.56764 | 26.08574 | 322 ft | 4 kts | 354° |
| 2026-05-05 14:59 | 44.56806 | 26.08568 | 322 ft | 8 kts | 353° |
| 2026-05-05 15:00 | 44.56868 | 26.08553 | 323 ft | 10 kts | 336° |
| 2026-05-05 15:00 | 44.56894 | 26.08497 | 323 ft | 12 kts | 276° |
| 2026-05-05 15:00 | 44.56948 | 26.08351 | 323 ft | 15 kts | 292° |
| 2026-05-05 15:00 | 44.56941 | 26.08195 | 323 ft | 17 kts | 263° |
| 2026-05-05 15:01 | 44.56937 | 26.08109 | 323 ft | 6 kts | 287° |
| 2026-05-05 15:01 | 44.56979 | 26.08085 | 323 ft | 8 kts | 352° |
| 2026-05-05 15:01 | 44.57012 | 26.08080 | 321 ft | 0 kts | 354° |
| 2026-05-05 15:01 | 44.57016 | 26.08080 | 322 ft | 0 kts | 353° |